sensor_id;sensor_type;location;lat;lon;timestamp;temperature;humidity
19192;DHT22;9728;48.194;16.346;2024-02-04T00:02:36;16.50;68.20
19192;DHT22;9728;48.194;16.346;2024-02-04T00:07:40;16.50;68.10
19192;DHT22;9728;48.194;16.346;2024-02-04T00:12:45;16.40;68.10
19192;DHT22;9728;48.194;16.346;2024-02-04T00:17:48;16.50;68.20
19192;DHT22;9728;48.194;16.346;2024-02-04T00:22:52;16.40;68.10
19192;DHT22;9728;48.194;16.346;2024-02-04T00:27:56;16.40;68.10
19192;DHT22;9728;48.194;16.346;2024-02-04T00:33:00;16.30;68.20
19192;DHT22;9728;48.194;16.346;2024-02-04T00:38:05;16.30;68.20
19192;DHT22;9728;48.194;16.346;2024-02-04T00:43:10;16.30;68.30
19192;DHT22;9728;48.194;16.346;2024-02-04T00:48:13;16.30;68.30
19192;DHT22;9728;48.194;16.346;2024-02-04T00:53:17;16.30;68.40
19192;DHT22;9728;48.194;16.346;2024-02-04T00:58:22;16.30;68.40
19192;DHT22;9728;48.194;16.346;2024-02-04T01:03:25;16.30;68.50
19192;DHT22;9728;48.194;16.346;2024-02-04T01:08:29;16.30;68.50
19192;DHT22;9728;48.194;16.346;2024-02-04T01:13:33;16.30;68.50
19192;DHT22;9728;48.194;16.346;2024-02-04T01:18:37;16.30;68.90
19192;DHT22;9728;48.194;16.346;2024-02-04T01:23:40;16.20;68.90
19192;DHT22;9728;48.194;16.346;2024-02-04T01:28:45;16.10;69.10
19192;DHT22;9728;48.194;16.346;2024-02-04T01:33:48;16.10;70.30
19192;DHT22;9728;48.194;16.346;2024-02-04T01:38:52;16.10;69.50
19192;DHT22;9728;48.194;16.346;2024-02-04T01:43:57;16.00;69.50
19192;DHT22;9728;48.194;16.346;2024-02-04T01:49:00;16.00;69.90
19192;DHT22;9728;48.194;16.346;2024-02-04T01:54:05;15.90;69.90
19192;DHT22;9728;48.194;16.346;2024-02-04T01:59:11;15.90;70.20
19192;DHT22;9728;48.194;16.346;2024-02-04T02:04:15;15.80;70.30
19192;DHT22;9728;48.194;16.346;2024-02-04T02:09:19;15.70;70.40
19192;DHT22;9728;48.194;16.346;2024-02-04T02:14:27;15.70;70.70
19192;DHT22;9728;48.194;16.346;2024-02-04T02:19:40;15.60;71.40
19192;DHT22;9728;48.194;16.346;2024-02-04T02:24:49;15.50;72.20
19192;DHT22;9728;48.194;16.346;2024-02-04T02:29:53;15.40;71.80
19192;DHT22;9728;48.194;16.346;2024-02-04T02:34:57;15.40;71.40
19192;DHT22;9728;48.194;16.346;2024-02-04T02:40:07;15.40;71.60
19192;DHT22;9728;48.194;16.346;2024-02-04T02:45:13;15.40;72.60
19192;DHT22;9728;48.194;16.346;2024-02-04T02:50:16;15.30;71.90
19192;DHT22;9728;48.194;16.346;2024-02-04T02:55:21;15.40;72.00
19192;DHT22;9728;48.194;16.346;2024-02-04T03:00:24;15.30;72.20
19192;DHT22;9728;48.194;16.346;2024-02-04T03:05:28;15.30;72.20
19192;DHT22;9728;48.194;16.346;2024-02-04T03:10:33;15.20;72.20
19192;DHT22;9728;48.194;16.346;2024-02-04T03:15:36;15.30;72.60
19192;DHT22;9728;48.194;16.346;2024-02-04T03:20:40;15.20;72.40
19192;DHT22;9728;48.194;16.346;2024-02-04T03:25:44;15.20;72.40
19192;DHT22;9728;48.194;16.346;2024-02-04T03:30:49;15.20;72.60
19192;DHT22;9728;48.194;16.346;2024-02-04T03:35:52;15.20;72.60
19192;DHT22;9728;48.194;16.346;2024-02-04T03:40:57;15.20;72.60
19192;DHT22;9728;48.194;16.346;2024-02-04T03:46:01;15.10;72.80
19192;DHT22;9728;48.194;16.346;2024-02-04T03:51:04;15.20;72.70
19192;DHT22;9728;48.194;16.346;2024-02-04T03:56:09;15.10;72.80
19192;DHT22;9728;48.194;16.346;2024-02-04T04:01:13;15.10;73.10
19192;DHT22;9728;48.194;16.346;2024-02-04T04:06:16;15.00;73.00
19192;DHT22;9728;48.194;16.346;2024-02-04T04:11:21;15.00;73.20
19192;DHT22;9728;48.194;16.346;2024-02-04T04:16:25;15.00;73.50
19192;DHT22;9728;48.194;16.346;2024-02-04T04:21:28;14.90;73.30
19192;DHT22;9728;48.194;16.346;2024-02-04T04:26:33;15.00;73.50
19192;DHT22;9728;48.194;16.346;2024-02-04T04:31:36;15.00;73.80
19192;DHT22;9728;48.194;16.346;2024-02-04T04:36:40;15.00;73.50
19192;DHT22;9728;48.194;16.346;2024-02-04T04:41:45;15.10;73.50
19192;DHT22;9728;48.194;16.346;2024-02-04T04:46:48;15.00;73.50
19192;DHT22;9728;48.194;16.346;2024-02-04T04:51:51;15.00;74.40
19192;DHT22;9728;48.194;16.346;2024-02-04T04:56:56;15.00;73.60
19192;DHT22;9728;48.194;16.346;2024-02-04T05:01:59;15.00;73.70
19192;DHT22;9728;48.194;16.346;2024-02-04T05:07:03;15.10;73.60
19192;DHT22;9728;48.194;16.346;2024-02-04T05:12:08;15.10;73.60
19192;DHT22;9728;48.194;16.346;2024-02-04T05:17:11;15.00;73.70
19192;DHT22;9728;48.194;16.346;2024-02-04T05:22:15;15.10;73.50
19192;DHT22;9728;48.194;16.346;2024-02-04T05:27:19;15.10;73.50
19192;DHT22;9728;48.194;16.346;2024-02-04T05:32:23;15.10;73.50
19192;DHT22;9728;48.194;16.346;2024-02-04T05:37:26;15.10;73.50
19192;DHT22;9728;48.194;16.346;2024-02-04T05:42:31;15.20;73.60
19192;DHT22;9728;48.194;16.346;2024-02-04T05:47:34;15.20;73.60
19192;DHT22;9728;48.194;16.346;2024-02-04T05:52:38;15.20;73.50
19192;DHT22;9728;48.194;16.346;2024-02-04T05:57:42;15.20;73.50
19192;DHT22;9728;48.194;16.346;2024-02-04T06:02:46;15.20;73.70
19192;DHT22;9728;48.194;16.346;2024-02-04T06:07:49;15.20;73.50
19192;DHT22;9728;48.194;16.346;2024-02-04T06:12:54;15.20;73.60
19192;DHT22;9728;48.194;16.346;2024-02-04T06:17:57;15.20;73.50
19192;DHT22;9728;48.194;16.346;2024-02-04T06:23:01;15.20;73.40
19192;DHT22;9728;48.194;16.346;2024-02-04T06:28:05;15.20;73.30
19192;DHT22;9728;48.194;16.346;2024-02-04T06:33:10;15.20;73.60
19192;DHT22;9728;48.194;16.346;2024-02-04T06:38:14;15.20;73.50
19192;DHT22;9728;48.194;16.346;2024-02-04T06:43:18;15.20;73.60
19192;DHT22;9728;48.194;16.346;2024-02-04T06:48:21;15.20;73.50
19192;DHT22;9728;48.194;16.346;2024-02-04T06:53:25;15.20;73.50
19192;DHT22;9728;48.194;16.346;2024-02-04T06:58:30;15.20;73.50
19192;DHT22;9728;48.194;16.346;2024-02-04T07:03:34;15.30;73.50
19192;DHT22;9728;48.194;16.346;2024-02-04T07:08:37;15.30;73.40
19192;DHT22;9728;48.194;16.346;2024-02-04T07:13:42;15.30;73.40
19192;DHT22;9728;48.194;16.346;2024-02-04T07:18:45;15.30;73.50
19192;DHT22;9728;48.194;16.346;2024-02-04T07:23:49;15.30;73.40
19192;DHT22;9728;48.194;16.346;2024-02-04T07:28:53;15.30;73.50
19192;DHT22;9728;48.194;16.346;2024-02-04T07:33:57;15.40;73.50
19192;DHT22;9728;48.194;16.346;2024-02-04T07:39:01;15.50;73.40
19192;DHT22;9728;48.194;16.346;2024-02-04T07:44:08;15.50;73.30
19192;DHT22;9728;48.194;16.346;2024-02-04T07:49:11;15.60;73.40
19192;DHT22;9728;48.194;16.346;2024-02-04T07:54:15;15.60;73.30
19192;DHT22;9728;48.194;16.346;2024-02-04T07:59:20;15.60;73.30
19192;DHT22;9728;48.194;16.346;2024-02-04T08:04:23;15.60;73.40
19192;DHT22;9728;48.194;16.346;2024-02-04T08:09:27;15.60;73.20
19192;DHT22;9728;48.194;16.346;2024-02-04T08:14:32;15.60;73.20
19192;DHT22;9728;48.194;16.346;2024-02-04T08:19:35;15.70;73.40
19192;DHT22;9728;48.194;16.346;2024-02-04T08:24:38;15.80;73.40
19192;DHT22;9728;48.194;16.346;2024-02-04T08:29:43;15.80;73.20
19192;DHT22;9728;48.194;16.346;2024-02-04T08:34:47;15.90;73.10
19192;DHT22;9728;48.194;16.346;2024-02-04T08:39:50;15.90;73.10
19192;DHT22;9728;48.194;16.346;2024-02-04T08:44:55;16.00;73.00
19192;DHT22;9728;48.194;16.346;2024-02-04T08:49:59;16.00;73.10
19192;DHT22;9728;48.194;16.346;2024-02-04T08:55:03;16.00;72.80
19192;DHT22;9728;48.194;16.346;2024-02-04T09:00:09;16.00;72.90
19192;DHT22;9728;48.194;16.346;2024-02-04T09:05:14;16.00;72.90
19192;DHT22;9728;48.194;16.346;2024-02-04T09:10:18;16.10;72.90
19192;DHT22;9728;48.194;16.346;2024-02-04T09:15:23;16.20;72.90
19192;DHT22;9728;48.194;16.346;2024-02-04T09:20:27;16.20;72.90
19192;DHT22;9728;48.194;16.346;2024-02-04T09:25:31;16.30;72.70
19192;DHT22;9728;48.194;16.346;2024-02-04T09:30:36;16.30;72.50
19192;DHT22;9728;48.194;16.346;2024-02-04T09:35:39;16.30;72.70
19192;DHT22;9728;48.194;16.346;2024-02-04T09:40:43;16.30;72.60
19192;DHT22;9728;48.194;16.346;2024-02-04T09:45:48;16.40;72.70
19192;DHT22;9728;48.194;16.346;2024-02-04T09:50:52;16.50;72.60
19192;DHT22;9728;48.194;16.346;2024-02-04T09:55:56;16.50;72.40
19192;DHT22;9728;48.194;16.346;2024-02-04T10:01:02;16.60;72.50
19192;DHT22;9728;48.194;16.346;2024-02-04T10:06:07;16.70;72.40
19192;DHT22;9728;48.194;16.346;2024-02-04T10:11:11;16.80;72.30
19192;DHT22;9728;48.194;16.346;2024-02-04T10:16:16;16.80;72.30
19192;DHT22;9728;48.194;16.346;2024-02-04T10:21:20;16.90;72.30
19192;DHT22;9728;48.194;16.346;2024-02-04T10:26:29;16.90;72.40
19192;DHT22;9728;48.194;16.346;2024-02-04T10:31:35;17.00;72.40
19192;DHT22;9728;48.194;16.346;2024-02-04T10:36:38;17.00;73.10
19192;DHT22;9728;48.194;16.346;2024-02-04T10:41:49;17.10;72.30
19192;DHT22;9728;48.194;16.346;2024-02-04T10:46:55;17.10;72.00
19192;DHT22;9728;48.194;16.346;2024-02-04T10:52:01;17.20;72.00
19192;DHT22;9728;48.194;16.346;2024-02-04T10:57:05;17.20;72.00
19192;DHT22;9728;48.194;16.346;2024-02-04T11:02:15;17.20;71.70
19192;DHT22;9728;48.194;16.346;2024-02-04T11:07:19;17.30;71.70
19192;DHT22;9728;48.194;16.346;2024-02-04T11:12:24;17.30;71.60
19192;DHT22;9728;48.194;16.346;2024-02-04T11:23:28;17.20;71.50
19192;DHT22;9728;48.194;16.346;2024-02-04T11:28:34;17.10;71.50
19192;DHT22;9728;48.194;16.346;2024-02-04T11:33:40;17.10;71.50
19192;DHT22;9728;48.194;16.346;2024-02-04T11:38:43;17.10;71.70
19192;DHT22;9728;48.194;16.346;2024-02-04T11:43:52;17.10;71.80
19192;DHT22;9728;48.194;16.346;2024-02-04T11:49:14;17.10;71.80
19192;DHT22;9728;48.194;16.346;2024-02-04T11:54:20;17.10;71.70
19192;DHT22;9728;48.194;16.346;2024-02-04T11:59:25;17.10;71.60
19192;DHT22;9728;48.194;16.346;2024-02-04T12:04:30;17.10;71.50
19192;DHT22;9728;48.194;16.346;2024-02-04T12:09:34;17.00;71.70
19192;DHT22;9728;48.194;16.346;2024-02-04T12:14:39;17.00;71.70
19192;DHT22;9728;48.194;16.346;2024-02-04T12:19:44;16.90;71.70
19192;DHT22;9728;48.194;16.346;2024-02-04T12:24:47;16.90;71.70
19192;DHT22;9728;48.194;16.346;2024-02-04T12:29:51;17.00;71.70
19192;DHT22;9728;48.194;16.346;2024-02-04T12:34:56;16.90;71.50
19192;DHT22;9728;48.194;16.346;2024-02-04T12:40:00;17.00;71.60
19192;DHT22;9728;48.194;16.346;2024-02-04T12:45:05;16.90;71.60
19192;DHT22;9728;48.194;16.346;2024-02-04T12:50:11;16.90;71.70
19192;DHT22;9728;48.194;16.346;2024-02-04T12:55:26;16.80;72.70
19192;DHT22;9728;48.194;16.346;2024-02-04T13:00:31;16.80;71.90
19192;DHT22;9728;48.194;16.346;2024-02-04T13:05:36;16.80;71.80
19192;DHT22;9728;48.194;16.346;2024-02-04T13:10:40;16.90;71.80
19192;DHT22;9728;48.194;16.346;2024-02-04T13:15:45;16.90;71.80
19192;DHT22;9728;48.194;16.346;2024-02-04T13:20:50;16.80;71.90
19192;DHT22;9728;48.194;16.346;2024-02-04T13:25:54;16.90;72.00
19192;DHT22;9728;48.194;16.346;2024-02-04T13:30:57;16.90;71.90
19192;DHT22;9728;48.194;16.346;2024-02-04T13:36:02;17.00;71.80
19192;DHT22;9728;48.194;16.346;2024-02-04T13:41:06;17.00;71.70
19192;DHT22;9728;48.194;16.346;2024-02-04T13:46:10;17.10;71.70
19192;DHT22;9728;48.194;16.346;2024-02-04T13:51:15;17.10;71.60
19192;DHT22;9728;48.194;16.346;2024-02-04T13:56:37;17.00;71.60
19192;DHT22;9728;48.194;16.346;2024-02-04T14:01:40;17.00;71.70
19192;DHT22;9728;48.194;16.346;2024-02-04T14:06:45;17.10;71.80
19192;DHT22;9728;48.194;16.346;2024-02-04T14:11:49;17.10;71.70
19192;DHT22;9728;48.194;16.346;2024-02-04T14:16:52;17.10;71.50
19192;DHT22;9728;48.194;16.346;2024-02-04T14:21:57;17.10;71.50
19192;DHT22;9728;48.194;16.346;2024-02-04T14:27:00;17.10;71.50
19192;DHT22;9728;48.194;16.346;2024-02-04T14:32:05;17.10;72.30
19192;DHT22;9728;48.194;16.346;2024-02-04T14:37:09;17.10;71.20
19192;DHT22;9728;48.194;16.346;2024-02-04T14:42:16;17.10;71.20
19192;DHT22;9728;48.194;16.346;2024-02-04T14:47:20;17.00;71.10
19192;DHT22;9728;48.194;16.346;2024-02-04T14:52:25;17.00;71.30
19192;DHT22;9728;48.194;16.346;2024-02-04T14:57:28;17.00;71.30
19192;DHT22;9728;48.194;16.346;2024-02-04T15:02:31;16.90;71.30
19192;DHT22;9728;48.194;16.346;2024-02-04T15:07:36;16.90;71.40
19192;DHT22;9728;48.194;16.346;2024-02-04T15:12:40;16.80;71.50
19192;DHT22;9728;48.194;16.346;2024-02-04T15:17:44;16.80;71.50
19192;DHT22;9728;48.194;16.346;2024-02-04T15:22:49;16.80;71.60
19192;DHT22;9728;48.194;16.346;2024-02-04T15:27:54;16.80;71.50
19192;DHT22;9728;48.194;16.346;2024-02-04T15:32:59;16.80;71.60
19192;DHT22;9728;48.194;16.346;2024-02-04T15:38:04;16.90;71.60
19192;DHT22;9728;48.194;16.346;2024-02-04T15:43:08;16.90;71.50
19192;DHT22;9728;48.194;16.346;2024-02-04T15:48:16;16.80;71.50
19192;DHT22;9728;48.194;16.346;2024-02-04T15:53:22;16.80;71.80
19192;DHT22;9728;48.194;16.346;2024-02-04T15:58:27;16.80;71.80
19192;DHT22;9728;48.194;16.346;2024-02-04T16:03:32;16.80;71.80
19192;DHT22;9728;48.194;16.346;2024-02-04T16:08:38;16.80;71.90
19192;DHT22;9728;48.194;16.346;2024-02-04T16:13:44;16.80;71.90
19192;DHT22;9728;48.194;16.346;2024-02-04T16:18:49;16.80;71.90
19192;DHT22;9728;48.194;16.346;2024-02-04T16:23:54;16.80;71.90
19192;DHT22;9728;48.194;16.346;2024-02-04T16:28:58;16.80;71.90
19192;DHT22;9728;48.194;16.346;2024-02-04T16:34:01;16.80;72.00
19192;DHT22;9728;48.194;16.346;2024-02-04T16:39:06;16.80;71.90
19192;DHT22;9728;48.194;16.346;2024-02-04T16:44:11;16.80;71.90
19192;DHT22;9728;48.194;16.346;2024-02-04T16:49:16;16.80;71.80
19192;DHT22;9728;48.194;16.346;2024-02-04T16:54:23;16.90;71.80
19192;DHT22;9728;48.194;16.346;2024-02-04T16:59:31;16.90;71.80
19192;DHT22;9728;48.194;16.346;2024-02-04T17:04:35;16.90;71.70
19192;DHT22;9728;48.194;16.346;2024-02-04T17:09:40;16.90;71.80
19192;DHT22;9728;48.194;16.346;2024-02-04T17:14:44;16.90;71.70
19192;DHT22;9728;48.194;16.346;2024-02-04T17:19:55;16.90;71.60
19192;DHT22;9728;48.194;16.346;2024-02-04T17:25:12;16.90;71.60
19192;DHT22;9728;48.194;16.346;2024-02-04T17:30:21;16.90;71.50
19192;DHT22;9728;48.194;16.346;2024-02-04T17:35:27;17.00;71.50
19192;DHT22;9728;48.194;16.346;2024-02-04T17:40:32;17.00;71.40
19192;DHT22;9728;48.194;16.346;2024-02-04T17:45:36;17.10;71.50
19192;DHT22;9728;48.194;16.346;2024-02-04T17:50:41;17.10;71.30
19192;DHT22;9728;48.194;16.346;2024-02-04T17:55:45;17.00;71.30
19192;DHT22;9728;48.194;16.346;2024-02-04T18:00:49;17.00;71.50
19192;DHT22;9728;48.194;16.346;2024-02-04T18:05:54;17.00;71.50
19192;DHT22;9728;48.194;16.346;2024-02-04T18:10:58;17.00;71.50
19192;DHT22;9728;48.194;16.346;2024-02-04T18:16:05;17.00;71.50
19192;DHT22;9728;48.194;16.346;2024-02-04T18:21:16;17.00;71.50
19192;DHT22;9728;48.194;16.346;2024-02-04T18:26:22;17.10;71.60
19192;DHT22;9728;48.194;16.346;2024-02-04T18:31:27;17.10;71.50
19192;DHT22;9728;48.194;16.346;2024-02-04T18:36:31;17.00;71.70
19192;DHT22;9728;48.194;16.346;2024-02-04T18:41:36;17.00;71.80
19192;DHT22;9728;48.194;16.346;2024-02-04T18:46:42;17.00;72.00
19192;DHT22;9728;48.194;16.346;2024-02-04T18:51:46;16.90;72.10
19192;DHT22;9728;48.194;16.346;2024-02-04T18:56:50;16.90;72.10
19192;DHT22;9728;48.194;16.346;2024-02-04T19:01:54;16.90;72.20
19192;DHT22;9728;48.194;16.346;2024-02-04T19:07:00;17.00;72.20
19192;DHT22;9728;48.194;16.346;2024-02-04T19:12:06;17.00;72.20
19192;DHT22;9728;48.194;16.346;2024-02-04T19:17:09;17.00;72.20
19192;DHT22;9728;48.194;16.346;2024-02-04T19:22:13;17.00;72.10
19192;DHT22;9728;48.194;16.346;2024-02-04T19:27:18;17.00;72.10
19192;DHT22;9728;48.194;16.346;2024-02-04T19:32:22;17.10;72.20
19192;DHT22;9728;48.194;16.346;2024-02-04T19:37:26;17.10;72.10
19192;DHT22;9728;48.194;16.346;2024-02-04T19:42:31;17.10;72.00
19192;DHT22;9728;48.194;16.346;2024-02-04T19:47:35;17.10;72.00
19192;DHT22;9728;48.194;16.346;2024-02-04T19:52:39;17.20;72.00
19192;DHT22;9728;48.194;16.346;2024-02-04T19:57:43;17.20;72.10
19192;DHT22;9728;48.194;16.346;2024-02-04T20:02:47;17.10;72.10
19192;DHT22;9728;48.194;16.346;2024-02-04T20:07:50;17.10;72.30
19192;DHT22;9728;48.194;16.346;2024-02-04T20:12:56;17.20;72.30
19192;DHT22;9728;48.194;16.346;2024-02-04T20:18:00;17.10;72.30
19192;DHT22;9728;48.194;16.346;2024-02-04T20:23:04;17.10;72.30
19192;DHT22;9728;48.194;16.346;2024-02-04T20:28:09;17.20;72.40
19192;DHT22;9728;48.194;16.346;2024-02-04T20:33:13;17.20;72.40
19192;DHT22;9728;48.194;16.346;2024-02-04T20:38:17;17.20;72.60
19192;DHT22;9728;48.194;16.346;2024-02-04T20:43:23;17.20;72.90
19192;DHT22;9728;48.194;16.346;2024-02-04T20:48:27;17.20;73.10
19192;DHT22;9728;48.194;16.346;2024-02-04T20:53:31;17.30;72.90
19192;DHT22;9728;48.194;16.346;2024-02-04T20:58:38;17.20;72.90
19192;DHT22;9728;48.194;16.346;2024-02-04T21:03:42;17.20;73.20
19192;DHT22;9728;48.194;16.346;2024-02-04T21:08:46;17.20;73.20
19192;DHT22;9728;48.194;16.346;2024-02-04T21:13:51;17.20;73.30
19192;DHT22;9728;48.194;16.346;2024-02-04T21:18:54;17.10;73.70
19192;DHT22;9728;48.194;16.346;2024-02-04T21:23:58;17.00;73.70
19192;DHT22;9728;48.194;16.346;2024-02-04T21:29:04;16.90;73.90
19192;DHT22;9728;48.194;16.346;2024-02-04T21:34:08;16.90;74.30
19192;DHT22;9728;48.194;16.346;2024-02-04T21:39:11;16.90;74.10
19192;DHT22;9728;48.194;16.346;2024-02-04T21:44:19;16.90;74.20
19192;DHT22;9728;48.194;16.346;2024-02-04T21:49:23;16.90;74.30
19192;DHT22;9728;48.194;16.346;2024-02-04T21:54:27;16.90;74.30
19192;DHT22;9728;48.194;16.346;2024-02-04T21:59:32;16.90;74.20
19192;DHT22;9728;48.194;16.346;2024-02-04T22:04:36;17.00;74.30
19192;DHT22;9728;48.194;16.346;2024-02-04T22:09:39;17.00;74.50
19192;DHT22;9728;48.194;16.346;2024-02-04T22:14:44;16.90;74.50
19192;DHT22;9728;48.194;16.346;2024-02-04T22:19:48;17.00;74.70
19192;DHT22;9728;48.194;16.346;2024-02-04T22:24:51;17.10;74.80
19192;DHT22;9728;48.194;16.346;2024-02-04T22:29:56;17.10;74.60
19192;DHT22;9728;48.194;16.346;2024-02-04T22:35:00;17.10;74.70
19192;DHT22;9728;48.194;16.346;2024-02-04T22:40:07;17.10;74.50
19192;DHT22;9728;48.194;16.346;2024-02-04T22:45:13;17.20;74.60
19192;DHT22;9728;48.194;16.346;2024-02-04T22:50:16;17.20;74.60
19192;DHT22;9728;48.194;16.346;2024-02-04T22:55:20;17.20;74.50
19192;DHT22;9728;48.194;16.346;2024-02-04T23:00:24;17.20;74.50
19192;DHT22;9728;48.194;16.346;2024-02-04T23:05:31;17.20;74.60
19192;DHT22;9728;48.194;16.346;2024-02-04T23:10:35;17.20;74.50
19192;DHT22;9728;48.194;16.346;2024-02-04T23:15:40;17.20;74.40
19192;DHT22;9728;48.194;16.346;2024-02-04T23:20:44;17.20;74.50
19192;DHT22;9728;48.194;16.346;2024-02-04T23:25:47;17.20;75.40
19192;DHT22;9728;48.194;16.346;2024-02-04T23:30:52;17.20;74.50
19192;DHT22;9728;48.194;16.346;2024-02-04T23:35:56;17.20;74.50
19192;DHT22;9728;48.194;16.346;2024-02-04T23:40:59;17.20;74.30
19192;DHT22;9728;48.194;16.346;2024-02-04T23:46:04;17.30;74.30
19192;DHT22;9728;48.194;16.346;2024-02-04T23:51:07;17.30;74.20
19192;DHT22;9728;48.194;16.346;2024-02-04T23:56:11;17.30;74.00
